Time;durP1;ratioP1;P1;durP2;ratioP2;P2;SDS_P1;SDS_P2;PMS_P1;PMS_P2;Temp;Humidity;BMP_temperature;BMP_pressure;BME280_temperature;BME280_humidity;BME280_pressure;Samples;Min_cycle;Max_cycle;Signal;HPM_P1;HPM_P2
2021/08/02 00:00:19;;;;;;;;;;;23.80;53.80;;;;;;492655;241;1098;-70
2021/08/02 00:02:19;;;;;;;;;;;23.90;53.80;;;;;;492560;241;1492;-70
2021/08/02 00:04:22;;;;;;;;;;;23.90;53.60;;;;;;492668;241;1048;-70
2021/08/02 00:06:22;;;;;;;;;;;23.90;53.60;;;;;;492632;242;1503;-70
2021/08/02 00:08:23;;;;;;;;;;;23.80;53.70;;;;;;492742;241;1201;-70
2021/08/02 00:10:25;;;;;;;;;;;23.90;53.50;;;;;;492825;241;1110;-70
2021/08/02 00:12:27;;;;;;;;;;;23.90;53.40;;;;;;492732;241;1198;-70
2021/08/02 00:14:28;;;;;;;;;;;23.90;53.50;;;;;;492645;241;2184;-70
2021/08/02 00:16:30;;;;;;;;;;;23.90;53.60;;;;;;492570;241;1160;-70
2021/08/02 00:18:31;;;;;;;;;;;23.90;53.60;;;;;;492694;241;1007;-70
2021/08/02 00:20:32;;;;;;;;;;;23.90;53.40;;;;;;492715;241;1123;-70
2021/08/02 00:22:34;;;;;;;;;;;23.90;53.40;;;;;;492711;241;1641;-70
2021/08/02 00:24:35;;;;;;;;;;;23.90;53.50;;;;;;492703;241;1097;-70
2021/08/02 00:26:36;;;;;;;;;;;23.90;53.40;;;;;;492651;241;1072;-71
2021/08/02 00:28:38;;;;;;;;;;;23.90;53.30;;;;;;492701;241;1145;-70
2021/08/02 00:30:39;;;;;;;;;;;23.90;53.40;;;;;;492627;241;1334;-70
2021/08/02 00:32:40;;;;;;;;;;;23.90;53.30;;;;;;492598;241;1107;-70
2021/08/02 00:34:41;;;;;;;;;;;23.90;53.20;;;;;;492754;241;2183;-70
2021/08/02 00:36:43;;;;;;;;;;;23.90;53.10;;;;;;492687;241;1058;-70
2021/08/02 00:38:44;;;;;;;;;;;23.90;53.20;;;;;;492783;241;1172;-70
2021/08/02 00:40:46;;;;;;;;;;;23.90;53.20;;;;;;492827;241;1062;-70
2021/08/02 00:42:47;;;;;;;;;;;23.80;53.30;;;;;;492684;241;1317;-70
2021/08/02 00:44:48;;;;;;;;;;;23.80;53.30;;;;;;492688;241;1043;-70
2021/08/02 00:46:49;;;;;;;;;;;23.80;53.30;;;;;;492656;241;1149;-70
2021/08/02 00:48:51;;;;;;;;;;;23.80;53.30;;;;;;492726;241;1091;-70
2021/08/02 00:50:52;;;;;;;;;;;23.90;53.20;;;;;;492753;241;1120;-70
2021/08/02 00:52:53;;;;;;;;;;;23.90;52.90;;;;;;492640;241;1132;-70
2021/08/02 00:54:55;;;;;;;;;;;23.90;53.00;;;;;;492775;241;2132;-69
2021/08/02 00:56:57;;;;;;;;;;;23.90;53.10;;;;;;492602;241;1057;-69
2021/08/02 00:58:57;;;;;;;;;;;24.00;52.90;;;;;;492606;241;1488;-69
2021/08/02 01:00:59;;;;;;;;;;;23.90;53.00;;;;;;492610;241;1080;-69
2021/08/02 01:03:00;;;;;;;;;;;24.00;52.70;;;;;;492726;241;1094;-69
2021/08/02 01:05:01;;;;;;;;;;;24.00;52.60;;;;;;492672;241;1109;-69
2021/08/02 01:07:03;;;;;;;;;;;23.90;52.70;;;;;;492846;241;1199;-69
2021/08/02 01:09:04;;;;;;;;;;;23.90;52.80;;;;;;492761;241;1237;-69
2021/08/02 01:11:05;;;;;;;;;;;23.90;53.00;;;;;;492714;241;1143;-69
2021/08/02 01:13:07;;;;;;;;;;;23.80;52.90;;;;;;492794;241;1059;-70
2021/08/02 01:15:08;;;;;;;;;;;23.80;52.90;;;;;;492585;241;2190;-69
2021/08/02 01:17:09;;;;;;;;;;;23.90;52.80;;;;;;492692;241;1152;-69
2021/08/02 01:19:11;;;;;;;;;;;23.80;52.80;;;;;;492714;241;1257;-70
2021/08/02 01:21:12;;;;;;;;;;;23.80;52.80;;;;;;492766;241;1113;-69
2021/08/02 01:23:13;;;;;;;;;;;23.80;52.80;;;;;;492698;241;1170;-69
2021/08/02 01:25:15;;;;;;;;;;;23.90;52.70;;;;;;492787;241;1069;-69
2021/08/02 01:27:16;;;;;;;;;;;23.80;52.60;;;;;;492774;241;1104;-69
2021/08/02 01:29:17;;;;;;;;;;;23.90;52.70;;;;;;492739;241;1069;-69
2021/08/02 01:31:18;;;;;;;;;;;23.90;52.60;;;;;;492570;241;1061;-69
2021/08/02 01:33:20;;;;;;;;;;;23.90;52.40;;;;;;492692;241;1038;-69
2021/08/02 01:35:22;;;;;;;;;;;23.90;52.40;;;;;;492700;241;2146;-69
2021/08/02 01:37:23;;;;;;;;;;;23.90;52.30;;;;;;492625;241;1092;-69
2021/08/02 01:39:24;;;;;;;;;;;23.90;52.40;;;;;;492678;241;1184;-69
2021/08/02 01:41:26;;;;;;;;;;;24.00;52.30;;;;;;492545;241;1102;-69
2021/08/02 01:43:27;;;;;;;;;;;23.90;52.20;;;;;;492678;241;1162;-70
2021/08/02 01:45:28;;;;;;;;;;;23.90;52.20;;;;;;492686;241;1023;-69
2021/08/02 01:47:29;;;;;;;;;;;23.90;52.10;;;;;;492683;241;1065;-69
2021/08/02 01:49:31;;;;;;;;;;;23.80;52.40;;;;;;492738;241;1060;-69
2021/08/02 01:51:32;;;;;;;;;;;23.80;52.40;;;;;;492642;241;1036;-69
2021/08/02 01:53:33;;;;;;;;;;;23.90;52.30;;;;;;492661;241;1317;-69
2021/08/02 01:55:35;;;;;;;;;;;23.80;52.30;;;;;;492662;241;2195;-70
2021/08/02 01:57:36;;;;;;;;;;;23.80;52.40;;;;;;492771;241;1077;-69
2021/08/02 01:59:37;;;;;;;;;;;23.80;52.40;;;;;;492746;241;974;-69
2021/08/02 02:01:39;;;;;;;;;;;23.90;52.20;;;;;;492654;241;1075;-69
2021/08/02 02:03:40;;;;;;;;;;;23.90;52.10;;;;;;492956;241;1033;-69
2021/08/02 02:05:41;;;;;;;;;;;23.90;52.20;;;;;;492670;241;1109;-69
2021/08/02 02:07:43;;;;;;;;;;;23.90;52.20;;;;;;492685;241;1080;-69
2021/08/02 02:09:44;;;;;;;;;;;23.90;52.10;;;;;;492763;241;1178;-70
2021/08/02 02:11:45;;;;;;;;;;;23.90;52.10;;;;;;492750;241;1034;-69
2021/08/02 02:13:47;;;;;;;;;;;23.80;52.20;;;;;;492688;241;1249;-69
2021/08/02 02:15:48;;;;;;;;;;;23.80;52.20;;;;;;492609;241;2187;-69
2021/08/02 02:17:49;;;;;;;;;;;23.80;52.40;;;;;;492588;241;1032;-69
2021/08/02 02:19:51;;;;;;;;;;;23.80;52.40;;;;;;492719;241;1058;-69
2021/08/02 02:21:52;;;;;;;;;;;23.70;52.40;;;;;;492657;241;1086;-69
2021/08/02 02:23:54;;;;;;;;;;;23.80;52.20;;;;;;492813;241;1252;-69
2021/08/02 02:25:55;;;;;;;;;;;23.80;52.20;;;;;;492621;241;1163;-69
2021/08/02 02:27:56;;;;;;;;;;;23.80;52.20;;;;;;492638;241;1107;-69
2021/08/02 02:29:57;;;;;;;;;;;23.80;52.10;;;;;;492716;241;991;-70
2021/08/02 02:31:59;;;;;;;;;;;23.80;52.30;;;;;;492736;241;1097;-69
2021/08/02 02:34:00;;;;;;;;;;;23.80;52.10;;;;;;492818;241;1265;-69
2021/08/02 02:36:01;;;;;;;;;;;23.90;52.10;;;;;;492636;241;2202;-69
2021/08/02 02:38:03;;;;;;;;;;;23.90;52.00;;;;;;492635;241;1133;-69
2021/08/02 02:40:04;;;;;;;;;;;23.90;52.00;;;;;;492761;241;1163;-70
2021/08/02 02:42:05;;;;;;;;;;;23.90;52.10;;;;;;492670;241;1061;-70
2021/08/02 02:44:07;;;;;;;;;;;23.90;52.10;;;;;;492778;241;1055;-69
2021/08/02 02:46:08;;;;;;;;;;;23.90;52.00;;;;;;492663;241;1151;-69
2021/08/02 02:48:09;;;;;;;;;;;23.90;52.00;;;;;;492708;241;1027;-69
2021/08/02 02:50:11;;;;;;;;;;;23.80;52.00;;;;;;492816;241;985;-69
2021/08/02 02:52:12;;;;;;;;;;;23.80;52.00;;;;;;492775;241;1053;-69
2021/08/02 02:54:13;;;;;;;;;;;23.90;51.80;;;;;;492681;241;1294;-70
2021/08/02 02:56:15;;;;;;;;;;;23.80;52.10;;;;;;492695;241;2156;-70
2021/08/02 02:58:16;;;;;;;;;;;23.90;51.90;;;;;;492702;241;1092;-69
2021/08/02 03:00:17;;;;;;;;;;;23.80;52.00;;;;;;492781;241;1059;-69
2021/08/02 03:02:19;;;;;;;;;;;23.70;52.10;;;;;;492610;241;1058;-69
2021/08/02 03:04:20;;;;;;;;;;;23.80;52.00;;;;;;492748;241;966;-69
2021/08/02 03:06:21;;;;;;;;;;;23.80;51.90;;;;;;492580;241;1227;-69
2021/08/02 03:08:22;;;;;;;;;;;23.90;51.90;;;;;;492645;241;1106;-69
2021/08/02 03:10:24;;;;;;;;;;;23.90;51.90;;;;;;492730;241;1115;-69
2021/08/02 03:12:25;;;;;;;;;;;23.80;51.90;;;;;;492653;241;1296;-69
2021/08/02 03:14:27;;;;;;;;;;;23.90;51.80;;;;;;492867;241;1088;-69
2021/08/02 03:16:28;;;;;;;;;;;23.90;51.80;;;;;;492682;241;2144;-69
2021/08/02 03:18:29;;;;;;;;;;;23.80;51.70;;;;;;492709;241;1047;-69
2021/08/02 03:20:30;;;;;;;;;;;23.90;51.60;;;;;;492748;241;1109;-69
2021/08/02 03:22:32;;;;;;;;;;;23.90;51.60;;;;;;492678;241;1092;-69
2021/08/02 03:24:33;;;;;;;;;;;23.80;51.70;;;;;;492690;241;1181;-69
2021/08/02 03:26:34;;;;;;;;;;;23.80;51.80;;;;;;492630;241;1188;-69
2021/08/02 03:28:36;;;;;;;;;;;23.80;51.90;;;;;;492642;241;1041;-69
2021/08/02 03:30:37;;;;;;;;;;;23.70;52.00;;;;;;492600;241;1038;-69
2021/08/02 03:32:38;;;;;;;;;;;23.80;52.00;;;;;;492627;241;1028;-69
2021/08/02 03:34:40;;;;;;;;;;;23.80;51.90;;;;;;492816;241;1069;-69
2021/08/02 03:36:41;;;;;;;;;;;23.70;52.00;;;;;;492795;241;2128;-69
2021/08/02 03:38:42;;;;;;;;;;;23.70;52.10;;;;;;492688;241;1051;-69
2021/08/02 03:40:44;;;;;;;;;;;23.80;52.00;;;;;;492743;241;1275;-69
2021/08/02 03:42:45;;;;;;;;;;;23.80;51.90;;;;;;492600;241;1052;-69
2021/08/02 03:44:46;;;;;;;;;;;23.80;51.80;;;;;;492781;241;1039;-69
2021/08/02 03:46:48;;;;;;;;;;;23.80;51.70;;;;;;492691;241;1064;-69
2021/08/02 03:48:49;;;;;;;;;;;23.90;51.60;;;;;;492751;241;1056;-69
2021/08/02 03:50:50;;;;;;;;;;;23.80;51.70;;;;;;492682;241;1308;-69
2021/08/02 03:52:52;;;;;;;;;;;23.80;51.70;;;;;;492719;241;1066;-69
2021/08/02 03:54:53;;;;;;;;;;;23.90;51.50;;;;;;492665;241;1161;-69
2021/08/02 03:56:54;;;;;;;;;;;23.90;51.40;;;;;;492688;241;2182;-69
2021/08/02 03:58:55;;;;;;;;;;;23.80;51.70;;;;;;492645;241;1110;-69
2021/08/02 04:00:57;;;;;;;;;;;23.80;51.60;;;;;;492758;241;1016;-69
2021/08/02 04:02:58;;;;;;;;;;;23.90;51.60;;;;;;492646;242;1037;-69
2021/08/02 04:04:59;;;;;;;;;;;23.90;51.50;;;;;;492673;241;996;-69
2021/08/02 04:07:02;;;;;;;;;;;23.80;51.70;;;;;;492546;241;1039;-69
2021/08/02 04:09:04;;;;;;;;;;;23.80;51.80;;;;;;492749;241;1065;-69
2021/08/02 04:11:05;;;;;;;;;;;23.80;51.60;;;;;;492696;241;1178;-69
2021/08/02 04:13:06;;;;;;;;;;;23.80;51.50;;;;;;492694;241;1052;-69
2021/08/02 04:15:08;;;;;;;;;;;23.90;51.60;;;;;;492769;241;1050;-69
2021/08/02 04:17:09;;;;;;;;;;;23.90;51.50;;;;;;492671;241;2108;-69
2021/08/02 04:19:10;;;;;;;;;;;23.90;51.50;;;;;;492665;241;1047;-69
2021/08/02 04:21:12;;;;;;;;;;;23.80;51.60;;;;;;492690;238;1232;-69
2021/08/02 04:23:13;;;;;;;;;;;23.90;51.50;;;;;;492569;241;1173;-69
2021/08/02 04:25:14;;;;;;;;;;;23.90;51.30;;;;;;492602;241;1176;-69
2021/08/02 04:27:15;;;;;;;;;;;23.90;51.30;;;;;;492498;241;1165;-69
2021/08/02 04:29:17;;;;;;;;;;;23.90;51.40;;;;;;492562;241;1030;-69
2021/08/02 04:31:18;;;;;;;;;;;23.90;51.40;;;;;;492502;241;1216;-69
2021/08/02 04:33:19;;;;;;;;;;;23.80;51.40;;;;;;492494;241;1176;-69
2021/08/02 04:35:21;;;;;;;;;;;23.80;51.50;;;;;;492524;241;2187;-69
2021/08/02 04:37:22;;;;;;;;;;;23.80;51.50;;;;;;492516;241;1126;-69
2021/08/02 04:39:23;;;;;;;;;;;23.80;51.50;;;;;;492655;241;1102;-69
2021/08/02 04:41:25;;;;;;;;;;;23.70;51.70;;;;;;492544;241;1289;-69
2021/08/02 04:43:26;;;;;;;;;;;23.70;51.50;;;;;;492549;241;1122;-69
2021/08/02 04:45:27;;;;;;;;;;;23.70;51.60;;;;;;492591;241;1081;-69
2021/08/02 04:47:29;;;;;;;;;;;23.90;51.50;;;;;;492535;241;1139;-69
2021/08/02 04:49:30;;;;;;;;;;;23.80;51.50;;;;;;492531;241;1039;-69
2021/08/02 04:51:31;;;;;;;;;;;23.80;51.50;;;;;;492446;237;1352;-69
2021/08/02 04:53:33;;;;;;;;;;;23.90;51.50;;;;;;492454;241;1031;-69
2021/08/02 04:55:34;;;;;;;;;;;23.80;51.50;;;;;;492419;241;2195;-69
2021/08/02 04:57:35;;;;;;;;;;;23.80;51.50;;;;;;492410;241;1075;-69
2021/08/02 04:59:37;;;;;;;;;;;23.80;51.40;;;;;;492417;241;1061;-69
2021/08/02 05:01:38;;;;;;;;;;;23.80;51.60;;;;;;492471;241;1185;-69
2021/08/02 05:03:39;;;;;;;;;;;23.80;51.60;;;;;;492493;241;1084;-69
2021/08/02 05:05:41;;;;;;;;;;;23.80;51.60;;;;;;492472;241;1167;-69
2021/08/02 05:07:42;;;;;;;;;;;23.80;51.60;;;;;;492474;241;1169;-69
2021/08/02 05:09:43;;;;;;;;;;;23.80;51.50;;;;;;492446;241;1155;-69
2021/08/02 05:11:45;;;;;;;;;;;23.80;51.50;;;;;;492439;241;1280;-69
2021/08/02 05:13:46;;;;;;;;;;;23.80;51.40;;;;;;492482;241;1082;-69
2021/08/02 05:15:47;;;;;;;;;;;23.80;51.70;;;;;;492449;241;2183;-69
2021/08/02 05:17:49;;;;;;;;;;;23.80;51.60;;;;;;492456;241;1207;-69
2021/08/02 05:19:50;;;;;;;;;;;23.80;51.40;;;;;;492510;241;1177;-69
2021/08/02 05:21:51;;;;;;;;;;;23.70;51.60;;;;;;492381;241;1207;-69
2021/08/02 05:23:52;;;;;;;;;;;23.80;51.70;;;;;;492514;241;1111;-69
2021/08/02 05:25:54;;;;;;;;;;;23.80;51.50;;;;;;492426;241;1300;-69
2021/08/02 05:27:55;;;;;;;;;;;23.80;51.50;;;;;;492514;241;1070;-69
2021/08/02 05:29:56;;;;;;;;;;;23.80;51.40;;;;;;492420;241;1299;-69
2021/08/02 05:31:58;;;;;;;;;;;23.80;51.40;;;;;;492411;241;1213;-69
2021/08/02 05:33:59;;;;;;;;;;;23.70;51.60;;;;;;492387;241;1075;-69
2021/08/02 05:36:03;;;;;;;;;;;23.70;51.70;;;;;;492373;241;2208;-69
2021/08/02 05:38:02;;;;;;;;;;;23.80;51.50;;;;;;492260;242;1363;-69
2021/08/02 05:40:03;;;;;;;;;;;23.90;51.40;;;;;;492449;241;1049;-69
2021/08/02 05:42:05;;;;;;;;;;;23.80;51.30;;;;;;492322;241;1306;-69
2021/08/02 05:44:06;;;;;;;;;;;23.80;51.40;;;;;;492350;241;1123;-69
2021/08/02 05:46:07;;;;;;;;;;;23.80;51.50;;;;;;492305;241;1185;-69
2021/08/02 05:48:09;;;;;;;;;;;23.80;51.40;;;;;;492274;241;1090;-69
2021/08/02 05:50:10;;;;;;;;;;;23.70;51.70;;;;;;492296;241;1177;-69
2021/08/02 05:52:11;;;;;;;;;;;23.60;51.80;;;;;;492188;241;1116;-69
2021/08/02 05:54:13;;;;;;;;;;;23.70;51.80;;;;;;492293;241;1084;-69
2021/08/02 05:56:14;;;;;;;;;;;23.70;51.90;;;;;;492311;241;2202;-69
2021/08/02 05:58:15;;;;;;;;;;;23.70;51.80;;;;;;492306;241;1272;-69
2021/08/02 06:00:17;;;;;;;;;;;23.70;51.80;;;;;;492235;241;1076;-69
2021/08/02 06:02:18;;;;;;;;;;;23.60;51.80;;;;;;492131;241;1143;-69
2021/08/02 06:04:19;;;;;;;;;;;23.70;51.80;;;;;;492223;241;1064;-69
2021/08/02 06:06:20;;;;;;;;;;;23.70;51.70;;;;;;492261;241;1206;-69
2021/08/02 06:08:22;;;;;;;;;;;23.70;51.80;;;;;;492157;241;1206;-69
2021/08/02 06:10:23;;;;;;;;;;;23.60;52.10;;;;;;492139;241;1169;-69
2021/08/02 06:12:24;;;;;;;;;;;23.60;52.00;;;;;;492048;241;1294;-69
2021/08/02 06:14:26;;;;;;;;;;;23.60;52.10;;;;;;492138;241;1135;-69
2021/08/02 06:16:27;;;;;;;;;;;23.60;52.10;;;;;;492094;241;2195;-70
2021/08/02 06:18:28;;;;;;;;;;;23.70;51.80;;;;;;492106;241;1068;-70
2021/08/02 06:20:30;;;;;;;;;;;23.70;51.70;;;;;;492105;241;1156;-70
2021/08/02 06:22:31;;;;;;;;;;;23.70;51.80;;;;;;491971;241;1163;-70
2021/08/02 06:24:32;;;;;;;;;;;23.70;51.80;;;;;;492087;241;1081;-69
2021/08/02 06:26:34;;;;;;;;;;;23.80;51.60;;;;;;492267;241;1219;-69
2021/08/02 06:28:35;;;;;;;;;;;23.80;51.50;;;;;;492212;241;1080;-69
2021/08/02 06:30:36;;;;;;;;;;;23.70;51.70;;;;;;492186;241;1070;-70
2021/08/02 06:32:38;;;;;;;;;;;23.80;51.70;;;;;;491841;241;1156;-69
2021/08/02 06:34:39;;;;;;;;;;;23.80;51.80;;;;;;491953;241;1100;-69
2021/08/02 06:36:40;;;;;;;;;;;23.80;51.80;;;;;;491881;241;2152;-70
2021/08/02 06:38:42;;;;;;;;;;;23.80;51.70;;;;;;491943;241;1225;-70
2021/08/02 06:40:43;;;;;;;;;;;23.80;51.60;;;;;;491842;241;1079;-70
2021/08/02 06:42:44;;;;;;;;;;;23.70;51.80;;;;;;491925;241;1164;-69
2021/08/02 06:44:46;;;;;;;;;;;23.80;51.90;;;;;;491828;241;1120;-69
2021/08/02 06:46:47;;;;;;;;;;;23.80;51.80;;;;;;491961;241;1244;-69
2021/08/02 06:48:48;;;;;;;;;;;23.80;51.70;;;;;;491800;241;1095;-69
2021/08/02 06:50:51;;;;;;;;;;;23.80;51.90;;;;;;491837;241;1093;-69
2021/08/02 06:52:52;;;;;;;;;;;23.70;51.90;;;;;;491834;241;1229;-69
2021/08/02 06:54:54;;;;;;;;;;;23.70;52.00;;;;;;491824;241;1180;-69
2021/08/02 06:56:55;;;;;;;;;;;23.70;52.00;;;;;;491781;241;2187;-69
2021/08/02 06:58:56;;;;;;;;;;;23.80;51.90;;;;;;491886;241;1311;-69
2021/08/02 07:00:58;;;;;;;;;;;23.80;51.80;;;;;;491701;241;1435;-69
2021/08/02 07:02:59;;;;;;;;;;;23.80;51.80;;;;;;491765;241;1269;-70
2021/08/02 07:05:00;;;;;;;;;;;23.90;51.80;;;;;;491651;241;1107;-70
2021/08/02 07:07:02;;;;;;;;;;;23.80;51.90;;;;;;491563;241;1210;-69
2021/08/02 07:09:03;;;;;;;;;;;23.90;51.80;;;;;;491701;241;1366;-69
2021/08/02 07:11:05;;;;;;;;;;;23.90;51.70;;;;;;491667;241;1368;-69
2021/08/02 07:13:05;;;;;;;;;;;23.90;51.80;;;;;;491819;241;1436;-70
2021/08/02 07:15:07;;;;;;;;;;;23.80;51.80;;;;;;491780;241;1298;-69
2021/08/02 07:17:08;;;;;;;;;;;23.80;52.00;;;;;;491950;241;2187;-69
2021/08/02 07:19:09;;;;;;;;;;;23.80;52.00;;;;;;492636;241;1159;-69
2021/08/02 07:21:11;;;;;;;;;;;23.80;52.10;;;;;;492076;241;1158;-69
2021/08/02 07:23:12;;;;;;;;;;;23.80;52.10;;;;;;491746;241;1243;-69
2021/08/02 07:25:14;;;;;;;;;;;23.80;52.00;;;;;;492444;241;735;-69
2021/08/02 07:27:15;;;;;;;;;;;23.80;52.30;;;;;;491882;241;1068;-69
2021/08/02 07:29:16;;;;;;;;;;;23.70;52.50;;;;;;491993;241;746;-69
2021/08/02 07:31:18;;;;;;;;;;;23.80;52.30;;;;;;491747;241;1436;-69
2021/08/02 07:33:19;;;;;;;;;;;23.80;52.30;;;;;;492169;241;811;-69
2021/08/02 07:35:20;;;;;;;;;;;23.80;52.20;;;;;;491839;241;745;-69
2021/08/02 07:37:21;;;;;;;;;;;23.80;52.20;;;;;;492452;241;2187;-69
2021/08/02 07:39:23;;;;;;;;;;;23.90;52.00;;;;;;491951;241;798;-69
2021/08/02 07:41:26;;;;;;;;;;;23.90;52.00;;;;;;491953;241;683;-70
2021/08/02 07:43:25;;;;;;;;;;;23.80;52.20;;;;;;491921;241;1305;-69
2021/08/02 07:45:27;;;;;;;;;;;23.80;52.30;;;;;;492501;241;863;-69
2021/08/02 07:47:28;;;;;;;;;;;23.80;52.30;;;;;;491941;241;1128;-70
2021/08/02 07:49:30;;;;;;;;;;;23.90;52.20;;;;;;492047;241;826;-69
2021/08/02 07:51:33;;;;;;;;;;;24.00;52.20;;;;;;491807;241;1357;-70
2021/08/02 07:53:32;;;;;;;;;;;23.90;52.30;;;;;;492106;242;1406;-70
2021/08/02 07:55:33;;;;;;;;;;;23.90;52.40;;;;;;492129;241;1213;-70
2021/08/02 07:57:35;;;;;;;;;;;23.90;52.50;;;;;;491976;241;2202;-70
2021/08/02 07:59:36;;;;;;;;;;;23.80;52.60;;;;;;492114;241;786;-69
2021/08/02 08:01:37;;;;;;;;;;;23.80;52.60;;;;;;491423;242;847;-70
2021/08/02 08:03:39;;;;;;;;;;;23.80;52.60;;;;;;491938;241;730;-69
2021/08/02 08:05:40;;;;;;;;;;;23.80;52.60;;;;;;491503;241;880;-69
2021/08/02 08:07:41;;;;;;;;;;;23.80;52.40;;;;;;491935;241;799;-69
2021/08/02 08:09:43;;;;;;;;;;;23.80;52.40;;;;;;492049;241;1200;-69
2021/08/02 08:11:44;;;;;;;;;;;23.80;52.50;;;;;;491504;241;629;-69
2021/08/02 08:13:45;;;;;;;;;;;23.90;52.50;;;;;;491603;241;1192;-70
2021/08/02 08:15:46;;;;;;;;;;;23.90;52.30;;;;;;491411;241;807;-70
2021/08/02 08:17:48;;;;;;;;;;;23.90;52.30;;;;;;491798;241;2186;-69
2021/08/02 08:19:49;;;;;;;;;;;23.90;52.30;;;;;;491871;241;810;-69
2021/08/02 08:21:50;;;;;;;;;;;23.90;52.30;;;;;;491160;241;1082;-70
2021/08/02 08:23:52;;;;;;;;;;;23.90;52.50;;;;;;491739;241;755;-70
2021/08/02 08:25:53;;;;;;;;;;;23.90;52.40;;;;;;491603;241;1364;-69
2021/08/02 08:27:54;;;;;;;;;;;23.90;52.40;;;;;;491531;241;1046;-69
2021/08/02 08:29:56;;;;;;;;;;;23.90;52.40;;;;;;491918;241;827;-70
2021/08/02 08:31:57;;;;;;;;;;;23.90;52.30;;;;;;491327;241;1022;-69
2021/08/02 08:33:58;;;;;;;;;;;24.00;52.30;;;;;;491959;241;803;-69
2021/08/02 08:36:00;;;;;;;;;;;23.90;52.40;;;;;;491863;241;1460;-69
2021/08/02 08:38:01;;;;;;;;;;;23.90;52.40;;;;;;491818;241;2183;-69
2021/08/02 08:40:02;;;;;;;;;;;24.00;52.40;;;;;;491523;241;841;-69
2021/08/02 08:42:04;;;;;;;;;;;24.00;52.20;;;;;;491862;242;787;-69
2021/08/02 08:44:05;;;;;;;;;;;24.10;52.20;;;;;;491670;241;1078;-69
2021/08/02 08:46:06;;;;;;;;;;;24.10;52.00;;;;;;491432;241;851;-69
2021/08/02 08:48:08;;;;;;;;;;;24.10;52.10;;;;;;491416;241;798;-69
2021/08/02 08:50:09;;;;;;;;;;;24.00;52.00;;;;;;491515;241;751;-69
2021/08/02 08:52:10;;;;;;;;;;;24.00;52.20;;;;;;491819;241;769;-69
2021/08/02 08:54:11;;;;;;;;;;;24.10;52.10;;;;;;491435;241;804;-69
2021/08/02 08:56:13;;;;;;;;;;;24.10;51.90;;;;;;492058;241;835;-69
2021/08/02 08:58:14;;;;;;;;;;;24.10;52.00;;;;;;491595;241;2187;-69
2021/08/02 09:00:15;;;;;;;;;;;24.10;52.00;;;;;;492072;241;839;-69
2021/08/02 09:02:17;;;;;;;;;;;24.10;52.10;;;;;;491958;241;1110;-69
2021/08/02 09:04:18;;;;;;;;;;;24.10;52.10;;;;;;492113;241;837;-69
2021/08/02 09:06:19;;;;;;;;;;;24.10;52.10;;;;;;491631;241;1367;-69
2021/08/02 09:08:21;;;;;;;;;;;24.10;52.00;;;;;;491871;241;842;-69
2021/08/02 09:10:22;;;;;;;;;;;24.10;52.00;;;;;;492303;241;862;-70
2021/08/02 09:12:24;;;;;;;;;;;24.10;51.90;;;;;;491894;241;1065;-69
2021/08/02 09:14:25;;;;;;;;;;;24.20;51.90;;;;;;491548;241;1041;-69
2021/08/02 09:16:27;;;;;;;;;;;24.20;51.90;;;;;;491090;241;1079;-69
2021/08/02 09:18:27;;;;;;;;;;;24.10;52.10;;;;;;491242;242;2191;-69
2021/08/02 09:20:29;;;;;;;;;;;24.10;52.10;;;;;;491727;241;1337;-69
2021/08/02 09:22:30;;;;;;;;;;;24.10;52.00;;;;;;491260;241;1428;-69
2021/08/02 09:24:31;;;;;;;;;;;24.30;51.30;;;;;;491233;241;689;-70
2021/08/02 09:26:32;;;;;;;;;;;24.30;51.60;;;;;;491326;241;822;-69
2021/08/02 09:28:34;;;;;;;;;;;24.00;52.10;;;;;;491399;241;1300;-69
2021/08/02 09:30:35;;;;;;;;;;;24.10;52.10;;;;;;491616;241;787;-69
2021/08/02 09:32:36;;;;;;;;;;;24.00;52.30;;;;;;491580;241;1332;-69
2021/08/02 09:34:38;;;;;;;;;;;23.90;52.20;;;;;;491643;241;786;-69
2021/08/02 09:36:39;;;;;;;;;;;24.00;52.10;;;;;;492121;241;740;-69
2021/08/02 09:38:40;;;;;;;;;;;24.00;52.00;;;;;;491647;241;2214;-69
2021/08/02 09:40:42;;;;;;;;;;;24.10;51.90;;;;;;492128;241;827;-69
2021/08/02 09:42:43;;;;;;;;;;;24.00;52.00;;;;;;492097;241;1090;-69
2021/08/02 09:44:44;;;;;;;;;;;24.00;51.90;;;;;;491805;241;1115;-69
2021/08/02 09:46:48;;;;;;;;;;;24.00;51.80;;;;;;491889;241;1426;-69
2021/08/02 09:48:47;;;;;;;;;;;24.10;51.60;;;;;;491373;242;1325;-69
2021/08/02 09:50:48;;;;;;;;;;;24.10;51.50;;;;;;491674;241;1374;-69
2021/08/02 09:52:50;;;;;;;;;;;24.10;51.60;;;;;;491698;241;842;-69
2021/08/02 09:54:51;;;;;;;;;;;24.20;51.50;;;;;;492323;241;740;-69
2021/08/02 09:56:52;;;;;;;;;;;24.10;51.40;;;;;;492128;241;1058;-69
2021/08/02 09:58:54;;;;;;;;;;;24.10;51.50;;;;;;491791;241;2180;-69
2021/08/02 10:00:55;;;;;;;;;;;24.10;51.50;;;;;;492243;241;1406;-69
2021/08/02 10:02:56;;;;;;;;;;;24.10;51.70;;;;;;492526;241;1054;-69
2021/08/02 10:04:58;;;;;;;;;;;24.10;51.80;;;;;;492295;242;830;-69
2021/08/02 10:06:59;;;;;;;;;;;24.10;51.80;;;;;;492078;241;1227;-69
2021/08/02 10:09:00;;;;;;;;;;;24.20;51.90;;;;;;491882;241;1002;-69
2021/08/02 10:11:02;;;;;;;;;;;24.20;51.80;;;;;;492381;241;1536;-69
2021/08/02 10:13:03;;;;;;;;;;;24.20;51.80;;;;;;491994;241;977;-69
2021/08/02 10:15:04;;;;;;;;;;;24.10;52.00;;;;;;492207;241;1165;-70
2021/08/02 10:17:07;;;;;;;;;;;24.10;52.10;;;;;;492182;241;1194;-69
2021/08/02 10:19:07;;;;;;;;;;;24.20;51.90;;;;;;491901;242;2195;-69
2021/08/02 10:21:08;;;;;;;;;;;24.20;51.80;;;;;;492474;241;1542;-69
2021/08/02 10:23:09;;;;;;;;;;;24.10;51.90;;;;;;492379;241;1021;-69
2021/08/02 10:25:11;;;;;;;;;;;24.10;51.80;;;;;;492551;241;841;-69
2021/08/02 10:27:12;;;;;;;;;;;24.20;51.80;;;;;;492456;241;1136;-69
2021/08/02 10:29:13;;;;;;;;;;;24.20;51.70;;;;;;492492;241;1072;-69
2021/08/02 10:31:15;;;;;;;;;;;24.10;51.70;;;;;;491994;241;1351;-69
2021/08/02 10:33:16;;;;;;;;;;;24.20;51.80;;;;;;492139;241;1421;-69
2021/08/02 10:35:17;;;;;;;;;;;24.20;51.80;;;;;;492092;241;848;-69
2021/08/02 10:37:19;;;;;;;;;;;24.10;51.80;;;;;;492310;241;1385;-69
2021/08/02 10:39:20;;;;;;;;;;;24.10;52.10;;;;;;491833;241;2226;-69
2021/08/02 10:41:21;;;;;;;;;;;24.00;52.20;;;;;;492318;241;866;-69
2021/08/02 10:43:23;;;;;;;;;;;24.10;52.10;;;;;;491763;241;818;-69
2021/08/02 10:45:24;;;;;;;;;;;23.90;52.30;;;;;;491750;241;1123;-69
2021/08/02 10:47:25;;;;;;;;;;;23.80;52.60;;;;;;491803;241;1152;-69
2021/08/02 10:49:27;;;;;;;;;;;23.70;52.80;;;;;;491786;241;1108;-70
2021/08/02 10:51:28;;;;;;;;;;;23.90;52.40;;;;;;491683;241;1084;-69
2021/08/02 10:53:29;;;;;;;;;;;24.00;52.00;;;;;;491733;241;1074;-69
2021/08/02 10:55:31;;;;;;;;;;;24.00;51.90;;;;;;491789;241;1098;-70
2021/08/02 10:57:32;;;;;;;;;;;23.90;52.20;;;;;;491669;241;2194;-70
2021/08/02 10:59:33;;;;;;;;;;;23.80;52.60;;;;;;491764;241;1178;-69
2021/08/02 11:01:34;;;;;;;;;;;23.80;52.60;;;;;;491581;241;1178;-69
2021/08/02 11:03:36;;;;;;;;;;;23.70;52.80;;;;;;491632;241;1110;-69
2021/08/02 11:05:37;;;;;;;;;;;23.70;52.90;;;;;;491659;241;1110;-69
2021/08/02 11:07:38;;;;;;;;;;;23.70;53.00;;;;;;491616;241;1250;-69
2021/08/02 11:09:40;;;;;;;;;;;23.70;53.00;;;;;;491684;241;1086;-69
2021/08/02 11:11:41;;;;;;;;;;;23.70;53.10;;;;;;491678;241;1115;-69
2021/08/02 11:13:42;;;;;;;;;;;23.70;53.10;;;;;;491581;241;1141;-70
2021/08/02 11:15:44;;;;;;;;;;;23.70;53.20;;;;;;491715;241;1185;-69
2021/08/02 11:17:45;;;;;;;;;;;23.70;53.10;;;;;;491629;241;2188;-70
2021/08/02 11:19:46;;;;;;;;;;;23.70;53.20;;;;;;491770;241;1100;-70
2021/08/02 11:21:48;;;;;;;;;;;23.70;53.20;;;;;;491724;241;1109;-70
2021/08/02 11:23:49;;;;;;;;;;;23.70;53.00;;;;;;491700;241;1194;-70
2021/08/02 11:25:50;;;;;;;;;;;23.70;53.00;;;;;;491738;241;1097;-69
2021/08/02 11:27:52;;;;;;;;;;;23.70;53.20;;;;;;491638;241;1071;-69
2021/08/02 11:29:53;;;;;;;;;;;23.70;53.00;;;;;;491720;241;1354;-69
2021/08/02 11:31:54;;;;;;;;;;;23.70;53.00;;;;;;491791;241;1339;-69
2021/08/02 11:33:56;;;;;;;;;;;23.60;53.20;;;;;;491649;241;1112;-69
2021/08/02 11:35:57;;;;;;;;;;;23.60;53.30;;;;;;491593;241;1140;-70
2021/08/02 11:37:58;;;;;;;;;;;23.70;53.10;;;;;;491377;241;2132;-70
2021/08/02 11:40:00;;;;;;;;;;;23.80;53.10;;;;;;491564;241;1069;-70
2021/08/02 11:42:01;;;;;;;;;;;23.90;52.70;;;;;;491575;241;1083;-69
2021/08/02 11:44:02;;;;;;;;;;;23.90;53.00;;;;;;491648;241;1054;-70
2021/08/02 11:46:04;;;;;;;;;;;23.80;53.00;;;;;;491554;241;1287;-70
2021/08/02 11:48:05;;;;;;;;;;;23.80;53.20;;;;;;491552;241;1083;-70
2021/08/02 11:50:07;;;;;;;;;;;23.80;53.10;;;;;;491539;241;1098;-70
2021/08/02 11:52:08;;;;;;;;;;;23.80;53.20;;;;;;491504;241;1178;-70
2021/08/02 11:54:10;;;;;;;;;;;23.80;53.30;;;;;;491482;241;1136;-70
2021/08/02 11:56:11;;;;;;;;;;;23.80;53.30;;;;;;491613;241;1095;-69